»·PEaware :: N396U KSDL-KPSP

N396U :: KSDL-KPSP

FLIGHT INFORMATION

Flight Status: Arrived
Operator: Privately registered:
United States
More flights under this callsign
Pilot: Tanner C. (11250)
Aircraft: GULFSTREAM G-1159C GULFSTREAM 4
(GLF4)
More flights by this aircraft type
Origin: KSDL Scottsdale
United States
Destination: KPSP Palm Springs Intl
United States
More flights between these airports :: More routes between these airports
Route: IZZZO6 BLH TRM
File this flight plan on PilotEdge
Remarks:
Altitude:
(Current/Filed)
29,000ft
Speed:
(Current/Filed)
480kts
Departed: 23-Dec-17 11:29 PM
Arrived: 24-Dec-17 12:11 AM
Distance/Time
Traveled:
229nm/0:42
Distance/Time
To Go:
Arrived

Flight Plot

Page will automatically refresh every two minutes.

Flight plan parsing failed; only flown route is shown


Map Options




Map Legend


Flown Route
Filed Route
Departure Airport
Arrival Airport
Navaid (VOR, NDB)
Fix

Horizontal Profiles

Position Reports

Time Latitude Longitude Heading Altitude Ground
Speed
23-Dec-17 23:18 33.628535 -111.906273 133 1492ft 0kts
23-Dec-17 23:19 33.628535 -111.906273 133 1492ft 0kts
23-Dec-17 23:20 33.628535 -111.906273 133 1492ft 0kts
23-Dec-17 23:21 33.628535 -111.906273 133 1492ft 0kts
23-Dec-17 23:22 33.628535 -111.906273 133 1492ft 0kts
23-Dec-17 23:23 33.628535 -111.906273 133 1492ft 0kts
23-Dec-17 23:24 33.628535 -111.906273 133 1492ft 0kts
23-Dec-17 23:25 33.628535 -111.906273 133 1492ft 0kts
23-Dec-17 23:26 33.628522 -111.906257 133 1492ft 2kts
23-Dec-17 23:27 33.630310 -111.903587 44 1499ft 18kts
23-Dec-17 23:28 33.631240 -111.902516 43 1502ft 0kts
23-Dec-17 23:29 33.631240 -111.902516 43 1502ft 0kts
23-Dec-17 23:30 33.631245 -111.902510 43 1502ft 1kts
23-Dec-17 23:31 33.631439 -111.901639 132 1505ft 0kts
23-Dec-17 23:32 33.631439 -111.901639 132 1505ft 0kts
23-Dec-17 23:33 33.631439 -111.901639 132 1505ft 0kts
23-Dec-17 23:34 33.631439 -111.901639 132 1505ft 0kts
23-Dec-17 23:35 33.629631 -111.902738 224 1501ft 67kts
23-Dec-17 23:36 33.610133 -111.957567 267 6163ft 257kts
23-Dec-17 23:37 33.591999 -112.048502 257 12085ft 345kts
23-Dec-17 23:38 33.561503 -112.169298 256 16420ft 362kts
23-Dec-17 23:39 33.532699 -112.281665 256 19628ft 363kts
23-Dec-17 23:40 33.502713 -112.398102 256 22428ft 383kts
23-Dec-17 23:41 33.471539 -112.518504 257 26582ft 396kts
23-Dec-17 23:42 33.451762 -112.649240 271 29216ft 426kts
23-Dec-17 23:43 33.452725 -112.793357 273 29240ft 438kts
23-Dec-17 23:44 33.461366 -112.938343 275 29238ft 438kts
23-Dec-17 23:45 33.470253 -113.084243 275 29237ft 438kts
23-Dec-17 23:46 33.478981 -113.230232 275 29235ft 438kts
23-Dec-17 23:47 33.487495 -113.375613 275 29234ft 439kts
23-Dec-17 23:48 33.495859 -113.521301 275 29232ft 439kts
23-Dec-17 23:49 33.504016 -113.666458 275 29237ft 439kts
23-Dec-17 23:50 33.512023 -113.811834 275 29239ft 439kts
23-Dec-17 23:51 33.522695 -113.957065 277 29238ft 438kts
23-Dec-17 23:52 33.536255 -114.101625 277 29167ft 439kts
23-Dec-17 23:53 33.549822 -114.247721 277 29150ft 438kts
23-Dec-17 23:54 33.563066 -114.392395 277 29128ft 439kts
23-Dec-17 23:55 33.574573 -114.519555 277 27769ft 392kts
23-Dec-17 23:56 33.586178 -114.649019 277 25293ft 407kts
23-Dec-17 23:57 33.596161 -114.766819 273 24745ft 387kts
23-Dec-17 23:58 33.599893 -114.897883 273 23014ft 390kts
23-Dec-17 23:59 33.603320 -115.025028 273 21309ft 376kts
24-Dec-17 00:00 33.606447 -115.145749 273 19677ft 352kts
24-Dec-17 00:01 33.609317 -115.260303 273 18274ft 343kts
24-Dec-17 00:02 33.612090 -115.375674 273 18234ft 348kts
24-Dec-17 00:03 33.614767 -115.491501 273 18233ft 348kts
24-Dec-17 00:04 33.617328 -115.607718 273 16688ft 345kts
24-Dec-17 00:05 33.619491 -115.708827 273 14907ft 342kts
24-Dec-17 00:06 33.621717 -115.817425 273 12923ft 317kts
24-Dec-17 00:07 33.623721 -115.918753 273 10927ft 298kts
24-Dec-17 00:08 33.625551 -116.015653 272 8932ft 288kts
24-Dec-17 00:09 33.627263 -116.109769 271 6946ft 282kts
24-Dec-17 00:10 33.647849 -116.193592 296 6000ft 240kts
24-Dec-17 00:11 33.678204 -116.265498 296 5788ft 229kts
24-Dec-17 00:12 33.706104 -116.329438 297 4725ft 222kts
24-Dec-17 00:13 33.734367 -116.389472 300 3799ft 169kts
24-Dec-17 00:14 33.756402 -116.430015 305 2999ft 142kts
24-Dec-17 00:15 33.782547 -116.466419 324 1618ft 146kts
24-Dec-17 00:16 33.811723 -116.491759 324 796ft 123kts
24-Dec-17 00:17 33.833742 -116.511159 353 485ft 33kts
24-Dec-17 00:18 33.821496 -116.500398 324 517ft 125kts
24-Dec-17 00:19 33.834406 -116.507993 143 485ft 12kts
24-Dec-17 00:20 33.829648 -116.503756 143 485ft 26kts
24-Dec-17 00:21 33.824247 -116.498695 146 485ft 13kts
24-Dec-17 00:22 33.823221 -116.497546 53 485ft 0kts
24-Dec-17 00:23 33.823221 -116.497546 53 485ft 0kts

Navigation Log

Ident Type
Flight plan parsing failed, navigation log unavailable